Time;durP1;ratioP1;P1;durP2;ratioP2;P2;SDS_P1;SDS_P2;PMS_P1;PMS_P2;Temp;Humidity;BMP_temperature;BMP_pressure;BME280_temperature;BME280_humidity;BME280_pressure;Samples;Min_cycle;Max_cycle;Signal;HPM_P1;HPM_P2
2021/11/28 00:01:14;;;;;;;183.40;64.47;;;;;;;-0.25;100.00;98169.91;1672589;85;21150;-80
2021/11/28 00:03:41;;;;;;;169.35;61.58;;;;;;;-0.31;100.00;98171.02;1675166;84;21032;-77
2021/11/28 00:06:19;;;;;;;155.43;59.75;;;;;;;-0.31;100.00;98171.02;1684697;84;20963;-79
2021/11/28 00:11:44;;;;;;;193.17;73.65;;;;;;;-0.29;100.00;98194.48;1676081;84;21039;-78
2021/11/28 00:16:11;;;;;;;213.20;72.42;;;;;;;-0.34;100.00;98201.24;1685127;84;21504;-83
2021/11/28 00:18:37;;;;;;;205.07;71.55;;;;;;;-0.34;100.00;98210.14;1683374;84;21134;-85
2021/11/28 00:21:05;;;;;;;207.37;72.45;;;;;;;-0.34;100.00;98210.14;1682336;84;21046;-83
2021/11/28 00:23:31;;;;;;;190.18;66.47;;;;;;;-0.33;100.00;98204.20;1681338;84;20988;-83
2021/11/28 00:25:58;;;;;;;191.65;69.90;;;;;;;-0.34;100.00;98206.63;1683738;83;21101;-83
2021/11/28 00:28:24;;;;;;;185.75;65.28;;;;;;;-0.33;100.00;98205.55;1683230;84;20947;-85
2021/11/28 00:30:52;;;;;;;188.90;66.50;;;;;;;-0.31;100.00;98205.27;1678220;84;20952;-85
2021/11/28 00:33:19;;;;;;;153.82;54.95;;;;;;;-0.28;100.00;98202.02;1675892;84;20889;-84
2021/11/28 00:35:46;;;;;;;100.38;39.05;;;;;;;-0.27;100.00;98201.75;1680083;84;20974;-80
2021/11/28 00:38:14;;;;;;;79.90;28.77;;;;;;;-0.27;100.00;98201.75;1676018;84;21128;-80
2021/11/28 00:40:40;;;;;;;65.00;26.37;;;;;;;-0.28;100.00;98197.44;1687983;84;21035;-81
2021/11/28 00:43:07;;;;;;;67.80;26.70;;;;;;;-0.30;100.00;98191.52;1685830;84;21742;-80
2021/11/28 00:45:34;;;;;;;50.00;23.05;;;;;;;-0.31;100.00;98191.79;1679054;84;21043;-80
2021/11/28 00:48:00;;;;;;;41.75;19.48;;;;;;;-0.31;100.00;98197.19;1686797;84;20964;-80
2021/11/28 00:53:10;;;;;;;34.95;19.35;;;;;;;-0.33;100.00;98188.02;1684086;84;21136;-86
2021/11/28 00:55:39;;;;;;;38.88;18.20;;;;;;;-0.34;100.00;98187.76;1673433;85;21038;-87
2021/11/28 00:58:05;;;;;;;48.05;19.07;;;;;;;-0.35;100.00;98192.34;1680976;84;20924;-86
2021/11/28 01:00:33;;;;;;;31.87;19.15;;;;;;;-0.36;100.00;98190.73;1673008;84;20940;-81
2021/11/28 01:03:00;;;;;;;38.88;20.45;;;;;;;-0.39;100.00;98187.78;1679050;84;21515;-85
2021/11/28 01:05:26;;;;;;;31.52;18.57;;;;;;;-0.43;100.00;98185.38;1677953;84;20963;-84
2021/11/28 01:07:53;;;;;;;40.15;19.82;;;;;;;-0.48;100.00;98183.51;1682120;84;20977;-84
2021/11/28 01:10:20;;;;;;;26.80;16.80;;;;;;;-0.52;100.00;98177.59;1677154;84;21030;-86
2021/11/28 01:12:47;;;;;;;30.08;17.70;;;;;;;-0.51;100.00;98179.21;1674580;85;20997;-83
2021/11/28 01:15:14;;;;;;;46.95;23.87;;;;;;;-0.49;100.00;98183.79;1677748;84;21187;-83
2021/11/28 01:17:42;;;;;;;50.05;23.77;;;;;;;-0.48;100.00;98192.14;1676316;84;20975;-82
2021/11/28 01:20:10;;;;;;;51.55;24.43;;;;;;;-0.44;100.00;98193.20;1680743;85;20990;-82
2021/11/28 01:22:38;;;;;;;70.35;29.57;;;;;;;-0.38;100.00;98190.20;1677026;84;20901;-79
2021/11/28 01:25:07;;;;;;;58.48;26.77;;;;;;;-0.34;100.00;98193.95;1682900;84;20959;-76
2021/11/28 01:27:34;;;;;;;50.17;23.98;;;;;;;-0.35;100.00;98200.97;1671800;84;21132;-76
2021/11/28 01:30:00;;;;;;;47.27;23.50;;;;;;;-0.36;100.00;98200.17;1668012;85;20968;-81
2021/11/28 01:32:29;;;;;;;37.63;19.55;;;;;;;-0.36;100.00;98200.17;1679898;84;21010;-80
2021/11/28 01:34:58;;;;;;;41.48;20.27;;;;;;;-0.35;100.00;98194.23;1684338;85;20932;-79
2021/11/28 01:37:25;;;;;;;37.28;21.30;;;;;;;-0.34;100.00;98187.22;1679792;84;21054;-80
2021/11/28 01:39:52;;;;;;;37.13;19.17;;;;;;;-0.35;100.00;98189.65;1677845;84;21019;-80
2021/11/28 01:42:44;;;;;;;30.40;15.93;;;;;;;-0.37;100.00;98192.36;1670868;85;20952;-80
2021/11/28 01:45:15;;;;;;;44.90;19.97;;;;;;;-0.39;100.00;98193.17;1681822;84;20976;-79
2021/11/28 01:47:44;;;;;;;38.98;20.00;;;;;;;-0.45;100.00;98198.33;1679633;84;20944;-79
2021/11/28 01:50:10;;;;;;;38.10;20.75;;;;;;;-0.48;100.00;98187.55;1674352;85;20963;-79
2021/11/28 01:52:37;;;;;;;43.13;22.95;;;;;;;-0.49;100.00;98179.74;1673076;85;21521;-79
2021/11/28 01:55:10;;;;;;;41.65;21.62;;;;;;;-0.49;100.00;98174.34;1673046;85;21018;-85
2021/11/28 01:57:36;;;;;;;48.63;25.50;;;;;;;-0.50;100.00;98168.69;1651985;85;21118;-79
2021/11/28 02:00:08;;;;;;;48.63;23.70;;;;;;;-0.49;100.00;98167.61;1676861;84;20963;-79
2021/11/28 02:02:36;;;;;;;44.93;22.60;;;;;;;-0.47;100.00;98166.80;1676872;84;20987;-80
2021/11/28 02:05:03;;;;;;;31.93;18.07;;;;;;;-0.47;100.00;98162.20;1677070;84;21543;-79
2021/11/28 02:07:31;;;;;;;29.50;16.35;;;;;;;-0.49;100.00;98155.48;1676400;85;20943;-79
2021/11/28 02:09:57;;;;;;;25.88;15.60;;;;;;;-0.52;100.00;98153.34;1651315;85;20924;-79
2021/11/28 02:12:29;;;;;;;31.07;17.42;;;;;;;-0.58;100.00;98151.24;1686199;84;21185;-79
2021/11/28 02:14:54;;;;;;;28.15;16.85;;;;;;;-0.61;100.00;98139.66;1680646;84;21217;-79
2021/11/28 02:17:20;;;;;;;30.90;15.58;;;;;;;-0.64;100.00;98140.76;1672275;85;22117;-80
2021/11/28 02:19:47;;;;;;;27.75;17.07;;;;;;;-0.68;100.00;98139.97;1681508;84;21633;-80
2021/11/28 02:22:14;;;;;;;25.17;14.98;;;;;;;-0.70;100.00;98138.63;1678032;84;21063;-81
2021/11/28 02:24:42;;;;;;;21.68;14.10;;;;;;;-0.72;100.00;98132.70;1672842;85;21534;-80
2021/11/28 02:27:09;;;;;;;23.70;14.63;;;;;;;-0.76;100.00;98139.19;1672278;84;21530;-77
2021/11/28 02:29:40;;;;;;;26.97;14.30;;;;;;;-0.77;100.00;98146.20;1677525;84;21484;-79
2021/11/28 02:32:08;;;;;;;19.40;13.62;;;;;;;-0.77;100.00;98155.64;1672404;85;20964;-80
2021/11/28 02:34:35;;;;;;;21.95;13.55;;;;;;;-0.76;100.00;98158.05;1682036;84;20904;-84
2021/11/28 02:37:03;;;;;;;30.30;14.00;;;;;;;-0.77;100.00;98162.38;1689033;84;20972;-85
2021/11/28 02:39:32;;;;;;;37.73;16.20;;;;;;;-0.80;100.00;98171.81;1686538;84;20952;-79
2021/11/28 02:41:59;;;;;;;139.77;35.73;;;;;;;-0.86;100.00;98189.62;1667351;84;21195;-78
2021/11/28 02:44:26;;;;;;;324.05;65.08;;;;;;;-0.90;100.00;98197.44;1682856;84;20990;-86
2021/11/28 02:46:53;;;;;;;207.90;50.90;;;;;;;-0.89;100.00;98198.25;1685311;84;20991;-85
2021/11/28 02:49:20;;;;;;;122.50;35.00;;;;;;;-0.88;100.00;98201.20;1674910;84;21090;-84
2021/11/28 02:51:47;;;;;;;107.10;31.00;;;;;;;-0.85;100.00;98203.35;1682991;84;21038;-84
2021/11/28 02:54:14;;;;;;;69.05;26.15;;;;;;;-0.84;100.00;98193.65;1675535;84;21110;-85
2021/11/28 02:56:42;;;;;;;67.32;26.62;;;;;;;-0.81;100.00;98193.64;1673970;85;20952;-85
2021/11/28 02:59:09;;;;;;;80.85;28.83;;;;;;;-0.80;100.00;98184.48;1678478;84;21027;-82
2021/11/28 03:01:36;;;;;;;140.45;37.48;;;;;;;-0.77;100.00;98183.93;1677602;85;21557;-84
2021/11/28 03:04:16;;;;;;;171.72;45.67;;;;;;;-0.77;100.00;98187.97;1664812;84;21451;-84
2021/11/28 03:06:43;;;;;;;126.67;37.00;;;;;;;-0.76;100.00;98183.66;1689902;84;22031;-84
2021/11/28 03:09:11;;;;;;;71.80;25.70;;;;;;;-0.73;100.00;98179.06;1679106;84;21156;-82
2021/11/28 03:11:38;;;;;;;41.10;19.62;;;;;;;-0.72;100.00;98172.59;1673688;84;20952;-79
2021/11/28 03:14:05;;;;;;;45.03;19.55;;;;;;;-0.74;100.00;98163.17;1675797;85;21534;-80
2021/11/28 03:16:32;;;;;;;40.30;18.87;;;;;;;-0.78;100.00;98154.83;1673389;85;20954;-84
2021/11/28 03:18:58;;;;;;;28.65;17.73;;;;;;;-0.79;100.00;98154.56;1687796;84;21123;-81
2021/11/28 03:21:28;;;;;;;23.27;15.38;;;;;;;-0.80;100.00;98145.41;1687128;84;20971;-82
2021/11/28 03:23:58;;;;;;;28.92;17.25;;;;;;;-0.81;100.00;98145.14;1682523;84;21035;-83
2021/11/28 03:26:34;;;;;;;30.60;17.75;;;;;;;-0.82;100.00;98141.64;1678820;85;21523;-82
2021/11/28 03:29:10;;;;;;;33.13;19.12;;;;;;;-0.80;100.00;98148.91;1672552;85;21480;-83
2021/11/28 03:31:56;;;;;;;23.18;15.32;;;;;;;-0.75;100.00;98154.81;1650970;85;21171;-83
2021/11/28 03:34:31;;;;;;;26.02;15.50;;;;;;;-0.70;100.00;98160.19;1645845;85;21275;-83
2021/11/28 03:36:59;;;;;;;28.07;15.95;;;;;;;-0.73;100.00;98156.16;1626897;85;21087;-82
2021/11/28 03:39:28;;;;;;;23.30;15.68;;;;;;;-0.72;100.00;98159.66;1622402;87;21071;-80
2021/11/28 03:42:05;;;;;;;28.10;14.05;;;;;;;-0.70;100.00;98159.64;1598956;87;36657;-78
2021/11/28 03:44:33;;;;;;;23.12;14.98;;;;;;;-0.70;100.00;98159.64;1624512;86;21566;-78
2021/11/28 03:47:03;;;;;;;32.00;16.60;;;;;;;-0.69;100.00;98159.91;1626794;86;20908;-78
2021/11/28 03:49:31;;;;;;;25.55;14.33;;;;;;;-0.69;100.00;98158.56;1600306;87;20964;-77
2021/11/28 03:51:58;;;;;;;33.28;15.95;;;;;;;-0.71;100.00;98164.77;1637014;86;21062;-75
2021/11/28 03:54:25;;;;;;;33.30;16.45;;;;;;;-0.72;100.00;98165.05;1628434;86;21648;-75
2021/11/28 03:56:54;;;;;;;18.52;12.05;;;;;;;-0.73;100.00;98158.05;1627567;87;21437;-76
2021/11/28 03:59:22;;;;;;;21.50;13.40;;;;;;;-0.76;100.00;98159.40;1630110;86;20993;-79
2021/11/28 04:01:50;;;;;;;30.95;15.28;;;;;;;-0.79;100.00;98159.14;1635487;87;21461;-82
2021/11/28 04:04:17;;;;;;;19.15;12.33;;;;;;;-0.82;100.00;98160.50;1641126;86;21071;-78
2021/11/28 04:06:46;;;;;;;24.63;13.88;;;;;;;-0.83;100.00;98151.34;1626395;87;21038;-79
2021/11/28 04:09:12;;;;;;;35.13;13.93;;;;;;;-0.86;100.00;98147.86;1627404;87;21473;-79
2021/11/28 04:11:41;;;;;;;18.55;12.35;;;;;;;-0.91;100.00;98145.17;1620035;87;21067;-81
2021/11/28 04:14:08;;;;;;;28.92;15.50;;;;;;;-0.97;100.00;98140.34;1633454;86;21082;-82
2021/11/28 04:16:35;;;;;;;31.77;15.58;;;;;;;-1.04;100.00;98144.68;1634018;87;21118;-77
2021/11/28 04:19:03;;;;;;;27.37;14.73;;;;;;;-1.09;100.00;98137.96;1630885;87;20979;-76
2021/11/28 04:21:29;;;;;;;23.57;13.50;;;;;;;-1.10;100.00;98144.97;1633286;87;21984;-77
2021/11/28 04:23:56;;;;;;;35.88;15.10;;;;;;;-1.12;100.00;98149.82;1629696;87;20867;-78
2021/11/28 04:26:23;;;;;;;23.95;15.30;;;;;;;-1.14;100.00;98156.02;1615921;87;20999;-80
2021/11/28 04:28:50;;;;;;;31.42;16.37;;;;;;;-1.18;100.00;98150.95;1634329;87;21085;-78
2021/11/28 04:31:17;;;;;;;26.95;15.60;;;;;;;-1.15;100.00;98159.80;1634421;87;21224;-81
2021/11/28 04:33:44;;;;;;;36.20;17.57;;;;;;;-1.14;100.00;98157.37;1631341;87;21536;-81
2021/11/28 04:36:11;;;;;;;34.53;17.37;;;;;;;-1.13;100.00;98158.44;1632246;87;21093;-83
2021/11/28 04:38:39;;;;;;;37.58;18.32;;;;;;;-1.11;100.00;98167.05;1635310;86;21030;-78
2021/11/28 04:41:08;;;;;;;25.90;15.50;;;;;;;-1.07;100.00;98175.39;1636490;86;20927;-83
2021/11/28 04:43:36;;;;;;;28.55;16.75;;;;;;;-1.07;100.00;98175.39;1637260;86;21115;-88
2021/11/28 04:46:03;;;;;;;27.98;14.65;;;;;;;-1.04;100.00;98174.84;1628761;86;21078;-84
2021/11/28 04:48:30;;;;;;;26.80;15.60;;;;;;;-1.03;100.00;98168.38;1628020;87;20875;-86
2021/11/28 04:50:58;;;;;;;34.60;18.05;;;;;;;-1.02;100.00;98165.95;1635258;87;21588;-87
2021/11/28 04:53:25;;;;;;;26.42;16.02;;;;;;;-1.04;100.00;98160.03;1629419;87;21455;-76
2021/11/28 04:55:51;;;;;;;22.62;15.40;;;;;;;-1.07;100.00;98163.27;1624823;88;20960;-77
2021/11/28 04:58:18;;;;;;;23.07;13.98;;;;;;;-1.10;100.00;98158.44;1625766;86;21554;-76
2021/11/28 05:00:46;;;;;;;24.23;14.75;;;;;;;-1.14;100.00;98162.75;1627444;86;21958;-82
2021/11/28 05:03:12;;;;;;;26.33;15.13;;;;;;;-1.19;100.00;98161.45;1638992;85;21107;-81
2021/11/28 05:05:40;;;;;;;25.30;14.53;;;;;;;-1.23;100.00;98164.42;1659879;84;21067;-81
2021/11/28 05:08:24;;;;;;;19.10;11.93;;;;;;;-1.23;100.00;98164.42;1608722;87;21122;-89
2021/11/28 05:10:50;;;;;;;24.15;13.68;;;;;;;-1.23;100.00;98165.77;1640189;85;21096;-79
2021/11/28 05:13:19;;;;;;;25.45;14.47;;;;;;;-1.24;100.00;98161.46;1646905;85;21151;-83
2021/11/28 05:15:47;;;;;;;26.15;14.53;;;;;;;-1.25;100.00;98162.53;1652552;85;21705;-84
2021/11/28 05:18:30;;;;;;;27.90;14.83;;;;;;;-1.24;100.00;98163.61;1616450;88;21052;-82
2021/11/28 05:20:59;;;;;;;38.90;18.32;;;;;;;-1.24;100.00;98166.84;1633374;84;21526;-81
2021/11/28 05:23:25;;;;;;;40.50;14.23;;;;;;;-1.20;100.00;98166.57;1647366;85;21523;-84
2021/11/28 05:25:52;;;;;;;24.50;14.80;;;;;;;-1.15;100.00;98170.02;1651315;85;20888;-84
2021/11/28 05:28:18;;;;;;;32.50;16.35;;;;;;;-1.12;100.00;98169.48;1647539;86;20983;-88
2021/11/28 05:30:47;;;;;;;33.28;16.90;;;;;;;-1.10;100.00;98179.98;1671408;84;20932;-81
2021/11/28 05:33:15;;;;;;;34.60;16.52;;;;;;;-1.08;100.00;98176.47;1674390;84;21009;-78
2021/11/28 05:35:49;;;;;;;36.28;16.70;;;;;;;-1.07;100.00;98179.44;1677727;84;21683;-77
2021/11/28 05:38:18;;;;;;;26.45;16.82;;;;;;;-1.05;100.00;98179.97;1664127;84;20991;-81
2021/11/28 05:40:44;;;;;;;27.00;16.15;;;;;;;-1.06;100.00;98183.20;1685881;84;21558;-81
2021/11/28 05:43:12;;;;;;;33.85;18.98;;;;;;;-1.04;100.00;98178.89;1680563;84;20965;-79
2021/11/28 05:45:39;;;;;;;38.58;19.55;;;;;;;-1.04;100.00;98181.58;1683965;84;21027;-80
2021/11/28 05:48:24;;;;;;;43.02;21.02;;;;;;;-1.04;100.00;98185.63;1681512;83;21793;-80
2021/11/28 05:51:11;;;;;;;46.35;22.48;;;;;;;-1.02;100.00;98195.59;1677635;84;21519;-85
2021/11/28 05:53:39;;;;;;;47.58;21.17;;;;;;;-1.02;100.00;98198.28;1669182;85;21001;-84
2021/11/28 05:56:05;;;;;;;54.58;25.12;;;;;;;-0.99;100.00;98203.12;1673266;85;21522;-77
2021/11/28 05:58:32;;;;;;;40.48;19.60;;;;;;;-0.96;100.00;98199.88;1666229;85;21024;-74
2021/11/28 06:00:59;;;;;;;33.42;19.10;;;;;;;-0.92;100.00;98193.41;1647373;85;21464;-79
2021/11/28 06:03:26;;;;;;;30.95;19.77;;;;;;;-0.92;100.00;98187.48;1636983;86;20992;-77
2021/11/28 06:06:11;;;;;;;31.73;17.73;;;;;;;-0.93;100.00;98180.47;1654306;84;21016;-75
2021/11/28 06:08:58;;;;;;;24.90;15.03;;;;;;;-0.89;100.00;98176.16;1609727;85;20956;-76
2021/11/28 06:11:32;;;;;;;46.55;19.65;;;;;;;-0.86;100.00;98170.76;1614381;88;21566;-77
2021/11/28 06:13:59;;;;;;;26.77;16.62;;;;;;;-0.84;100.00;98166.70;1643216;86;20991;-76
2021/11/28 06:16:32;;;;;;;41.37;19.05;;;;;;;-0.80;100.00;98172.35;1656303;86;20932;-76
2021/11/28 06:19:16;;;;;;;27.98;15.35;;;;;;;-0.78;100.00;98174.23;1644525;85;21922;-74
2021/11/28 06:21:53;;;;;;;35.17;17.27;;;;;;;-0.75;100.00;98181.77;1638954;86;21441;-74
2021/11/28 06:24:21;;;;;;;26.90;18.90;;;;;;;-0.77;100.00;98180.69;1648480;86;20897;-74
2021/11/28 06:26:49;;;;;;;31.62;16.42;;;;;;;-0.76;100.00;98182.30;1657079;86;21584;-74
2021/11/28 06:29:15;;;;;;;32.75;20.80;;;;;;;-0.73;100.00;98174.21;1657755;86;20870;-74
2021/11/28 06:31:42;;;;;;;40.20;20.10;;;;;;;-0.72;100.00;98176.63;1657848;86;20936;-75
2021/11/28 06:34:27;;;;;;;71.95;33.83;;;;;;;-0.74;100.00;98181.48;1643649;86;20989;-74
2021/11/28 06:37:12;;;;;;;37.60;23.50;;;;;;;-0.78;100.00;98177.73;1652912;86;20904;-75
2021/11/28 06:39:58;;;;;;;33.18;19.82;;;;;;;-0.79;100.00;98168.58;1643879;86;21487;-75
2021/11/28 06:42:29;;;;;;;22.30;16.35;;;;;;;-0.76;100.00;98170.18;1651203;86;21453;-76
2021/11/28 06:44:56;;;;;;;25.90;15.65;;;;;;;-0.74;100.00;98178.80;1646975;86;20972;-76
2021/11/28 06:47:23;;;;;;;22.05;15.23;;;;;;;-0.73;100.00;98170.98;1652659;86;21586;-75
2021/11/28 06:49:51;;;;;;;51.73;20.15;;;;;;;-0.76;100.00;98170.72;1656023;85;21039;-75
2021/11/28 06:52:28;;;;;;;23.10;14.53;;;;;;;-0.81;100.00;98171.55;1657169;84;21174;-74
2021/11/28 06:55:00;;;;;;;48.10;19.98;;;;;;;-0.79;100.00;98179.35;1656820;85;21069;-75
2021/11/28 06:57:26;;;;;;;46.13;18.48;;;;;;;-0.77;100.00;98175.84;1654234;85;21101;-76
2021/11/28 06:59:53;;;;;;;22.60;15.53;;;;;;;-0.76;100.00;98169.38;1675941;85;21139;-76
2021/11/28 07:02:20;;;;;;;26.25;14.78;;;;;;;-0.74;100.00;98173.41;1678496;84;20951;-76
2021/11/28 07:04:46;;;;;;;25.92;14.47;;;;;;;-0.70;100.00;98174.47;1678980;84;21140;-75
2021/11/28 07:07:15;;;;;;;33.10;14.28;;;;;;;-0.66;100.00;98165.29;1675988;84;20904;-74
2021/11/28 07:09:44;;;;;;;50.33;17.92;;;;;;;-0.60;100.00;98171.47;1670161;85;20969;-74
2021/11/28 07:12:11;;;;;;;33.90;16.40;;;;;;;-0.54;100.00;98177.07;1670763;85;21068;-75
2021/11/28 07:14:38;;;;;;;31.93;15.88;;;;;;;-0.50;100.00;98181.63;1662772;84;21178;-75
2021/11/28 07:17:06;;;;;;;24.95;16.52;;;;;;;-0.47;100.00;98177.58;1672062;84;21035;-75
2021/11/28 07:19:35;;;;;;;25.05;15.48;;;;;;;-0.42;100.00;98177.02;1664943;85;21012;-75
2021/11/28 07:22:06;;;;;;;37.08;18.25;;;;;;;-0.35;100.00;98175.36;1655724;85;21095;-75
2021/11/28 07:24:35;;;;;;;27.65;18.12;;;;;;;-0.32;100.00;98173.45;1679547;84;21476;-75
2021/11/28 07:27:03;;;;;;;33.18;17.65;;;;;;;-0.31;100.00;98168.33;1675465;85;21512;-75
2021/11/28 07:29:30;;;;;;;41.50;16.75;;;;;;;-0.26;100.00;98170.19;1674753;84;21026;-75
2021/11/28 07:31:57;;;;;;;25.27;15.35;;;;;;;-0.22;100.00;98168.55;1686408;84;21075;-75
2021/11/28 07:34:42;;;;;;;31.70;17.73;;;;;;;-0.20;100.00;98167.19;1679375;84;20882;-75
2021/11/28 07:37:11;;;;;;;29.90;15.70;;;;;;;-0.17;100.00;98169.32;1672829;85;20920;-75
2021/11/28 07:39:38;;;;;;;31.12;16.70;;;;;;;-0.10;100.00;98169.81;1675626;84;21515;-74
2021/11/28 07:42:07;;;;;;;42.15;18.70;;;;;;;-0.05;100.00;98170.33;1678999;84;21119;-75
2021/11/28 07:44:37;;;;;;;27.50;16.27;;;;;;;-0.01;100.00;98172.19;1676717;84;20955;-74
2021/11/28 07:47:22;;;;;;;24.92;16.30;;;;;;;0.03;100.00;98166.20;1685553;84;21018;-75
2021/11/28 07:49:52;;;;;;;38.35;18.57;;;;;;;0.07;100.00;98168.60;1674981;84;21071;-74
2021/11/28 07:52:20;;;;;;;36.38;17.15;;;;;;;0.13;100.00;98175.58;1677863;84;21137;-75
2021/11/28 07:54:48;;;;;;;29.77;18.95;;;;;;;0.22;100.00;98173.89;1683786;84;21498;-74
2021/11/28 07:57:17;;;;;;;47.23;20.95;;;;;;;0.22;100.00;98177.39;1669770;85;20996;-75
2021/11/28 08:00:07;;;;;;;35.83;19.65;;;;;;;0.29;100.00;98177.08;1678720;84;21451;-75
2021/11/28 08:02:36;;;;;;;31.07;16.87;;;;;;;0.39;100.00;98178.89;1674620;85;21031;-74
2021/11/28 08:05:10;;;;;;;33.18;20.57;;;;;;;0.44;100.00;98174.25;1647704;85;21028;-74
2021/11/28 08:07:56;;;;;;;52.58;25.08;;;;;;;0.53;100.00;98174.45;1684736;84;21128;-75
2021/11/28 08:10:27;;;;;;;33.83;19.62;;;;;;;0.66;100.00;98173.77;1674448;84;21038;-75
2021/11/28 08:12:53;;;;;;;43.78;22.60;;;;;;;0.77;100.00;98179.33;1674927;85;20968;-75
2021/11/28 08:15:21;;;;;;;42.80;22.32;;;;;;;0.82;100.00;98182.53;1679308;83;20936;-75
2021/11/28 08:17:48;;;;;;;35.38;20.72;;;;;;;0.86;100.00;98188.97;1673229;84;21120;-75
2021/11/28 08:20:17;;;;;;;40.05;21.23;;;;;;;0.94;100.00;98186.45;1684187;84;22098;-75
2021/11/28 08:22:45;;;;;;;33.02;18.55;;;;;;;1.02;100.00;98186.92;1678029;84;20995;-75
2021/11/28 08:25:13;;;;;;;45.58;20.85;;;;;;;1.14;100.00;98194.90;1675823;83;21106;-76
2021/11/28 08:27:41;;;;;;;29.75;17.85;;;;;;;1.22;100.00;98195.59;1645860;87;20981;-76
2021/11/28 08:30:15;;;;;;;38.70;17.77;;;;;;;1.27;100.00;98188.77;1619900;87;21561;-75
2021/11/28 08:32:48;;;;;;;29.35;17.07;;;;;;;1.30;100.00;98180.64;1624797;88;21821;-75
2021/11/28 08:35:34;;;;;;;26.05;17.05;;;;;;;1.30;100.00;98169.27;1612116;88;21008;-75
2021/11/28 08:38:01;;;;;;;55.73;27.80;;;;;;;1.32;100.00;98183.31;1655127;84;21007;-75
2021/11/28 08:40:27;;;;;;;55.25;31.30;;;;;;;1.39;100.00;98184.31;1674944;85;21022;-76
2021/11/28 08:42:54;;;;;;;42.55;25.05;;;;;;;1.44;100.00;98180.74;1682666;85;21015;-77
2021/11/28 08:45:21;;;;;;;40.03;20.32;;;;;;;1.50;100.00;98172.83;1654241;86;21750;-76
2021/11/28 08:47:48;;;;;;;43.60;23.83;;;;;;;1.57;100.00;98162.45;1617188;88;20981;-77
2021/11/28 08:50:15;;;;;;;30.55;20.43;;;;;;;1.67;100.00;98156.91;1619797;86;21599;-77
2021/11/28 08:52:44;;;;;;;29.45;19.05;;;;;;;1.77;100.00;98147.28;1618499;86;21010;-76
2021/11/28 08:55:11;;;;;;;30.95;19.75;;;;;;;1.92;100.00;98143.00;1623116;86;21059;-75
2021/11/28 08:57:38;;;;;;;28.20;19.35;;;;;;;2.15;100.00;98138.59;1616484;87;22146;-77
2021/11/28 09:00:07;;;;;;;38.35;22.30;;;;;;;2.39;100.00;98145.77;1638279;86;20914;-77
2021/11/28 09:02:33;;;;;;;57.58;35.73;;;;;;;2.67;100.00;98138.52;1617745;86;21099;-76
2021/11/28 09:05:03;;;;;;;41.50;25.72;;;;;;;2.91;100.00;98146.72;1677013;84;21088;-76
2021/11/28 09:07:30;;;;;;;42.78;25.43;;;;;;;3.06;100.00;98137.50;1651317;85;21008;-78
2021/11/28 09:09:57;;;;;;;34.83;22.55;;;;;;;3.19;100.00;98132.63;1678886;84;21512;-78
2021/11/28 09:12:24;;;;;;;36.63;23.22;;;;;;;3.30;100.00;98134.03;1674251;85;21471;-79
2021/11/28 09:14:50;;;;;;;39.20;24.65;;;;;;;3.36;100.00;98127.16;1674544;85;21008;-78
2021/11/28 09:17:17;;;;;;;34.38;21.65;;;;;;;3.42;100.00;98125.39;1672711;85;20984;-78
2021/11/28 09:20:27;;;;;;;38.00;23.50;;;;;;;3.49;100.00;98123.59;1676097;84;21040;-79
2021/11/28 09:24:23;;;;;;;43.95;25.17;;;;;;;3.52;100.00;98122.98;1638581;86;21155;-79
2021/11/28 09:24:47;;;;;;;39.40;23.00;;;;;;;3.61;100.00;98119.25;1644701;86;21349;-79
2021/11/28 09:27:13;;;;;;;40.35;26.23;;;;;;;3.82;100.00;98116.09;1649008;86;21012;-79
2021/11/28 09:29:44;;;;;;;42.13;24.65;;;;;;;4.14;100.00;98110.97;1638075;86;21693;-80
2021/11/28 09:32:15;;;;;;;35.13;21.00;;;;;;;4.54;100.00;98092.30;1649865;86;20912;-80
2021/11/28 09:34:43;;;;;;;37.93;23.55;;;;;;;4.93;100.00;98087.43;1670073;84;21976;-78
2021/11/28 09:37:11;;;;;;;35.35;23.15;;;;;;;5.38;100.00;98088.59;1680386;84;21051;-78
2021/11/28 09:39:43;;;;;;;43.85;25.00;;;;;;;6.37;100.00;98086.84;1673998;84;21012;-78
2021/11/28 09:42:11;;;;;;;44.38;27.65;;;;;;;6.37;100.00;98086.84;1679228;84;20965;-78
2021/11/28 09:44:40;;;;;;;39.42;25.48;;;;;;;6.99;100.00;98094.50;1671584;84;21571;-78
2021/11/28 09:47:10;;;;;;;38.08;22.15;;;;;;;7.57;100.00;98086.08;1672879;84;21130;-78
2021/11/28 09:49:39;;;;;;;37.65;25.02;;;;;;;8.12;100.00;98074.87;1674823;84;20968;-79
2021/11/28 09:52:11;;;;;;;56.77;30.55;;;;;;;8.56;100.00;98071.98;1671476;85;20897;-78
2021/11/28 09:54:40;;;;;;;74.55;36.03;;;;;;;9.11;100.00;98069.31;1669078;85;21040;-78
2021/11/28 09:57:14;;;;;;;36.25;20.68;;;;;;;9.70;100.00;98066.05;1674730;85;21005;-77
2021/11/28 09:59:46;;;;;;;29.55;18.73;;;;;;;10.24;96.48;98068.41;1668763;84;21104;-78
2021/11/28 10:02:28;;;;;;;30.10;18.02;;;;;;;10.60;91.08;98070.16;1676083;84;21083;-78
2021/11/28 10:04:56;;;;;;;26.65;18.10;;;;;;;10.56;90.04;98071.44;1669296;85;20917;-76
2021/11/28 10:07:22;;;;;;;35.52;23.77;;;;;;;10.32;87.93;98072.16;1675803;84;21032;-79
2021/11/28 10:09:49;;;;;;;43.80;29.42;;;;;;;10.04;91.94;98075.65;1676778;84;20928;-77
2021/11/28 10:12:30;;;;;;;38.05;21.80;;;;;;;9.91;93.56;98073.52;1676388;84;21087;-78
2021/11/28 10:15:08;;;;;;;33.40;18.82;;;;;;;9.69;90.83;98073.25;1677924;84;21058;-79
2021/11/28 10:17:37;;;;;;;30.15;18.17;;;;;;;9.34;91.09;98074.30;1676035;84;21062;-78
2021/11/28 10:20:08;;;;;;;23.02;15.72;;;;;;;8.98;92.60;98072.37;1677044;84;20940;-79
2021/11/28 10:22:34;;;;;;;26.87;15.80;;;;;;;8.72;94.49;98078.15;1677613;85;20872;-79
2021/11/28 10:25:15;;;;;;;26.90;16.35;;;;;;;8.42;92.12;98077.52;1674817;84;21566;-78
2021/11/28 10:27:47;;;;;;;21.85;14.78;;;;;;;8.09;92.72;98074.73;1668267;85;21555;-80
2021/11/28 10:30:31;;;;;;;28.30;15.95;;;;;;;7.81;93.21;98064.37;1669428;85;21039;-76
2021/11/28 10:33:17;;;;;;;26.87;17.77;;;;;;;7.65;93.20;98062.00;1674720;85;20996;-83
2021/11/28 10:36:08;;;;;;;25.80;16.62;;;;;;;7.52;94.12;98058.95;1673019;85;20988;-74
2021/11/28 10:38:38;;;;;;;25.62;16.70;;;;;;;7.39;94.99;98047.75;1667644;85;21172;-78
2021/11/28 10:41:26;;;;;;;27.58;18.30;;;;;;;7.33;96.82;98049.87;1638602;86;21460;-78
2021/11/28 10:43:54;;;;;;;30.50;16.97;;;;;;;7.46;97.64;98042.56;1649833;85;20918;-70
2021/11/28 10:46:32;;;;;;;26.97;16.93;;;;;;;7.58;96.33;98033.05;1652533;86;20945;-70
2021/11/28 10:49:16;;;;;;;27.07;16.67;;;;;;;7.67;94.23;98032.42;1652274;86;21017;-72
2021/11/28 10:51:50;;;;;;;26.00;17.65;;;;;;;7.89;94.40;98029.36;1640764;86;21196;-74
2021/11/28 10:54:32;;;;;;;24.82;17.23;;;;;;;8.24;94.10;98020.81;1647955;86;21545;-73
2021/11/28 10:57:14;;;;;;;28.50;17.77;;;;;;;8.68;92.68;98026.05;1642249;86;20997;-74
2021/11/28 11:00:00;;;;;;;24.02;15.75;;;;;;;9.06;90.29;98028.47;1647880;86;20968;-76
2021/11/28 11:02:30;;;;;;;25.80;15.45;;;;;;;9.29;90.45;98026.05;1641390;86;20948;-75
2021/11/28 11:04:57;;;;;;;34.38;20.37;;;;;;;9.43;87.40;98025.69;1625786;86;21893;-78
2021/11/28 11:07:25;;;;;;;29.65;16.48;;;;;;;9.32;87.38;98028.09;1677043;84;20957;-78
2021/11/28 11:09:54;;;;;;;26.12;16.40;;;;;;;9.28;87.32;98022.51;1676133;84;20980;-74
2021/11/28 11:12:33;;;;;;;22.58;15.23;;;;;;;9.13;85.89;98021.86;1673347;85;20981;-73
2021/11/28 11:15:03;;;;;;;22.93;15.57;;;;;;;8.98;87.75;98029.95;1670007;84;21464;-74
2021/11/28 11:17:34;;;;;;;24.98;15.95;;;;;;;8.90;88.50;98030.30;1668928;85;21170;-76
2021/11/28 11:20:03;;;;;;;20.68;15.48;;;;;;;8.77;88.60;98025.38;1664456;85;20901;-77
2021/11/28 11:22:31;;;;;;;21.97;14.20;;;;;;;8.70;90.09;98027.87;1670564;85;21087;-76
2021/11/28 11:25:10;;;;;;;24.80;16.37;;;;;;;8.91;90.55;98034.63;1665499;85;21492;-76
2021/11/28 11:27:39;;;;;;;23.90;14.87;;;;;;;9.22;90.17;98030.75;1681537;84;21142;-74
2021/11/28 11:30:16;;;;;;;22.32;14.25;;;;;;;9.63;88.76;98036.27;1675560;85;21991;-75
2021/11/28 11:32:49;;;;;;;23.98;15.05;;;;;;;10.02;87.77;98031.91;1672462;84;20916;-73